Time;durP1;ratioP1;P1;durP2;ratioP2;P2;SDS_P1;SDS_P2;PMS_P1;PMS_P2;Temp;Humidity;BMP_temperature;BMP_pressure;BME280_temperature;BME280_humidity;BME280_pressure;Samples;Min_cycle;Max_cycle;Signal;HPM_P1;HPM_P2
2022/09/11 00:01:21;;;;;;;4.27;3.93;;;15.10;99.90;;;16.21;82.93;97831.66;5069694;28;20460;-77
2022/09/11 00:03:49;;;;;;;7.43;4.63;;;15.10;99.90;;;16.07;83.05;97832.06;5039645;28;20493;-80
2022/09/11 00:06:20;;;;;;;5.00;4.60;;;15.10;99.90;;;16.03;nan;97825.50;5047334;28;20881;-77
2022/09/11 00:08:48;;;;;;;5.23;4.73;;;15.10;99.90;;;15.52;83.46;97750.25;5041178;28;20455;-79
2022/09/11 00:11:18;;;;;;;5.47;4.97;;;15.10;99.90;;;16.02;83.34;97823.84;5039874;28;20464;-77
2022/09/11 00:13:47;;;;;;;5.23;4.77;;;15.10;99.90;;;16.09;83.06;97813.56;5039508;28;20829;-79
2022/09/11 00:16:21;;;;;;;5.83;5.23;;;15.10;99.90;;;16.19;82.17;97814.75;5045365;28;20503;-81
2022/09/11 00:18:49;;;;;;;6.60;4.90;;;15.10;99.90;;;16.06;82.58;97814.06;5058400;28;20533;-79
2022/09/11 00:21:18;;;;;;;5.50;5.10;;;15.10;99.90;;;15.90;83.53;97820.44;5056595;28;20502;-80
2022/09/11 00:23:47;;;;;;;5.20;4.70;;;15.10;99.90;;;15.94;82.56;97821.56;5042429;28;20549;-79
2022/09/11 00:26:15;;;;;;;7.33;4.77;;;15.00;99.90;;;16.09;81.49;97819.00;5042120;28;20514;-78
2022/09/11 00:28:42;;;;;;;5.83;5.27;;;15.10;99.90;;;15.79;82.27;97765.00;5048249;28;20519;-79
2022/09/11 00:31:13;;;;;;;4.53;4.13;;;15.00;99.90;;;16.00;83.10;97815.91;5046271;28;20458;-76
2022/09/11 00:33:42;;;;;;;7.40;5.07;;;15.10;99.90;;;15.91;83.10;97819.34;5040961;28;20466;-80
2022/09/11 00:36:15;;;;;;;6.10;4.50;;;15.10;99.90;;;15.29;82.61;97695.00;5050271;28;20476;-80
2022/09/11 00:38:43;;;;;;;5.93;5.40;;;15.10;99.90;;;16.08;81.77;97801.00;5043591;28;20468;-82
2022/09/11 00:41:14;;;;;;;4.67;4.27;;;15.10;99.90;;;16.04;81.48;97807.22;5047564;28;20492;-78
2022/09/11 00:44:01;;;;;;;4.10;3.53;;;15.10;99.90;;;16.07;81.37;97809.44;5051486;28;20472;-81
2022/09/11 00:46:40;;;;;;;4.90;3.93;;;15.20;99.90;;;16.00;82.39;97806.94;5053275;28;20473;-83
2022/09/11 00:49:18;;;;;;;5.77;4.50;;;15.20;99.90;;;16.10;81.37;97803.50;5053535;28;20461;-83
2022/09/11 00:51:52;;;;;;;5.17;4.50;;;15.20;99.90;;;16.14;81.63;97802.69;5050906;28;20488;-77
2022/09/11 00:54:24;;;;;;;5.33;4.07;;;15.20;99.90;;;16.07;81.78;97802.09;5039157;28;20464;-82
2022/09/11 00:56:54;;;;;;;4.90;4.60;;;15.10;99.90;;;16.04;82.46;97804.50;5051972;28;20541;-80
2022/09/11 00:59:24;;;;;;;6.20;4.33;;;15.10;99.90;;;15.92;82.34;97807.38;5046485;28;20492;-82
2022/09/11 01:01:51;;;;;;;4.80;4.27;;;15.10;99.90;;;16.06;81.44;97800.44;5054639;28;20461;-82
2022/09/11 01:04:21;;;;;;;4.63;3.80;;;15.10;99.90;;;16.12;81.11;97807.59;5058006;28;20465;-80
2022/09/11 01:06:50;;;;;;;4.47;3.97;;;15.10;99.90;;;15.93;82.63;97798.13;5046385;28;20492;-83
2022/09/11 01:09:19;;;;;;;4.63;3.83;;;15.00;99.90;;;15.68;82.66;97797.56;5036798;28;20474;-84
2022/09/11 01:11:52;;;;;;;4.30;3.90;;;15.00;99.90;;;15.79;83.33;97803.13;5038572;28;20524;-76
2022/09/11 01:14:36;;;;;;;4.83;4.00;;;15.00;99.90;;;15.94;82.41;97797.03;5039750;28;21046;-82
2022/09/11 01:17:19;;;;;;;4.17;3.87;;;15.00;99.90;;;16.08;81.78;97801.00;5048491;28;20458;-81
2022/09/11 01:20:26;;;;;;;4.07;3.70;;;15.10;99.90;;;16.13;80.81;97792.06;5044743;28;20460;-81
2022/09/11 01:23:34;;;;;;;3.83;3.50;;;15.10;99.90;;;15.99;81.37;97799.81;5044330;28;20467;-76
2022/09/11 01:26:25;;;;;;;4.40;3.90;;;15.20;99.90;;;15.85;82.26;97800.22;5047647;28;20464;-82
2022/09/11 01:29:02;;;;;;;4.00;3.50;;;15.10;99.90;;;15.80;83.04;97799.31;5050821;28;20452;-85
2022/09/11 01:31:39;;;;;;;4.50;4.20;;;15.00;99.90;;;15.79;83.71;97798.50;5042685;28;20481;-86
2022/09/11 01:34:15;;;;;;;4.97;4.40;;;14.90;99.90;;;15.66;84.74;97798.88;5037987;28;20497;-83
2022/09/11 01:36:49;;;;;;;5.00;3.90;;;14.80;99.90;;;15.65;85.57;97802.69;5046159;28;21235;-78
2022/09/11 01:39:23;;;;;;;4.30;3.90;;;14.70;99.90;;;15.55;86.45;97797.94;5039857;28;20826;-75
2022/09/11 01:42:00;;;;;;;4.67;4.20;;;14.70;99.90;;;15.60;85.41;97802.63;5046398;28;20483;-83
2022/09/11 01:44:34;;;;;;;6.23;4.57;;;14.60;99.90;;;15.33;86.38;97801.47;5042198;28;20527;-83
2022/09/11 01:47:03;;;;;;;6.47;4.07;;;14.60;99.90;;;15.16;87.40;97790.63;5050100;28;21101;-81
2022/09/11 01:49:37;;;;;;;5.00;4.40;;;14.60;99.90;;;15.22;86.86;97795.06;5045874;28;20600;-83
2022/09/11 01:52:09;;;;;;;5.20;4.80;;;14.60;99.90;;;15.20;87.57;97788.25;5041282;28;20460;-82
2022/09/11 01:54:42;;;;;;;4.90;4.57;;;14.60;99.90;;;15.04;87.51;97768.13;5038611;28;21042;-79
2022/09/11 01:57:19;;;;;;;4.47;4.13;;;14.60;99.90;;;15.14;87.88;97787.34;5037621;28;20456;-79
2022/09/11 01:59:54;;;;;;;5.10;4.70;;;14.60;99.90;;;15.27;87.05;97786.97;5051441;28;20486;-80
2022/09/11 02:02:28;;;;;;;5.43;4.93;;;14.60;99.90;;;15.24;87.45;97783.94;5040606;28;20472;-78
2022/09/11 02:05:03;;;;;;;5.50;5.00;;;14.60;99.90;;;15.42;87.04;97788.25;5052919;28;20452;-80
2022/09/11 02:07:36;;;;;;;5.67;5.17;;;14.60;99.90;;;15.36;87.49;97789.25;5045753;28;20466;-77
2022/09/11 02:10:11;;;;;;;7.30;5.57;;;14.60;99.90;;;15.22;88.21;97786.09;5046901;28;20513;-80
2022/09/11 02:12:45;;;;;;;5.80;5.30;;;14.60;99.90;;;15.13;88.87;97786.50;5047008;28;20510;-81
2022/09/11 02:15:15;;;;;;;6.60;5.70;;;14.60;99.90;;;15.20;88.32;97778.16;5047115;28;20468;-83
2022/09/11 02:17:51;;;;;;;6.10;4.73;;;14.60;99.90;;;15.13;88.73;97777.53;5049626;28;20514;-79
2022/09/11 02:20:20;;;;;;;7.07;5.93;;;14.50;99.90;;;15.29;87.45;97775.81;5055606;28;20477;-79
2022/09/11 02:22:47;;;;;;;6.73;5.27;;;14.60;99.90;;;15.28;86.95;97772.28;5047237;28;20468;-82
2022/09/11 02:25:16;;;;;;;6.20;5.70;;;14.60;99.90;;;15.22;87.18;97769.75;5051564;28;20468;-81
2022/09/11 02:27:43;;;;;;;6.07;5.30;;;14.60;99.90;;;15.27;87.28;97773.38;5044142;28;20471;-80
2022/09/11 02:30:13;;;;;;;5.97;5.27;;;14.60;99.90;;;15.15;87.46;97768.03;5059907;28;20527;-82
2022/09/11 02:32:44;;;;;;;6.83;6.23;;;14.60;99.90;;;15.25;87.68;97771.97;5043370;28;20575;-80
2022/09/11 02:35:12;;;;;;;4.97;4.60;;;14.60;99.90;;;15.38;86.95;97776.19;5053263;28;20607;-83
2022/09/11 02:37:49;;;;;;;6.30;5.80;;;14.60;99.90;;;15.30;87.79;97770.13;5048697;28;20462;-80
2022/09/11 02:40:38;;;;;;;5.40;5.00;;;14.70;99.90;;;14.99;87.32;97720.75;5051216;28;20464;-81
2022/09/11 02:43:28;;;;;;;6.00;5.47;;;14.70;99.90;;;15.19;88.03;97767.53;5049608;28;20498;-79
2022/09/11 02:46:15;;;;;;;6.50;5.90;;;14.60;99.90;;;15.12;89.10;97767.72;5055292;28;20461;-80
2022/09/11 02:48:52;;;;;;;5.63;5.17;;;14.70;99.90;;;15.13;88.61;97769.38;5043521;28;20576;-80
2022/09/11 02:51:27;;;;;;;5.17;4.73;;;14.60;99.90;;;15.27;88.43;97761.66;5065382;28;20456;-81
2022/09/11 02:54:07;;;;;;;6.70;6.10;;;14.70;99.90;;;15.19;89.16;97762.91;5061767;28;20451;-81
2022/09/11 02:56:43;;;;;;;5.60;5.20;;;14.60;99.90;;;15.26;87.97;97773.59;5053191;28;20455;-76
2022/09/11 02:59:18;;;;;;;5.50;5.10;;;14.60;99.90;;;15.37;87.94;97759.06;5045946;28;21142;-77
2022/09/11 03:01:49;;;;;;;5.40;4.90;;;14.70;99.90;;;15.20;88.18;97761.03;5060658;28;20844;-80
2022/09/11 03:04:17;;;;;;;5.20;4.80;;;14.70;99.90;;;15.16;87.98;97736.22;5036196;28;20460;-82
2022/09/11 03:06:47;;;;;;;5.70;5.10;;;14.60;99.90;;;15.22;88.40;97761.59;5053091;28;20458;-81
2022/09/11 03:09:14;;;;;;;4.80;4.40;;;14.60;99.90;;;15.26;88.35;97758.13;5049438;28;20548;-81
2022/09/11 03:11:42;;;;;;;5.17;4.77;;;14.60;99.90;;;15.23;88.80;97764.03;5049041;28;20453;-82
2022/09/11 03:14:09;;;;;;;5.70;5.20;;;14.60;99.90;;;15.17;90.06;97770.50;5042158;28;20518;-83
2022/09/11 03:16:37;;;;;;;4.90;4.60;;;14.60;99.90;;;15.19;89.00;97768.34;5041583;28;20468;-84
2022/09/11 03:19:06;;;;;;;5.63;5.13;;;14.60;99.90;;;15.24;88.88;97754.00;5042560;28;20468;-83
2022/09/11 03:21:35;;;;;;;4.27;3.97;;;14.60;99.90;;;15.17;89.00;97770.50;5041541;28;20459;-80
2022/09/11 03:24:03;;;;;;;5.33;4.80;;;14.60;99.90;;;15.13;89.96;97769.38;5039165;28;20480;-82
2022/09/11 03:26:31;;;;;;;4.13;3.83;;;14.50;99.90;;;14.82;90.29;97769.75;5044520;28;20468;-81
2022/09/11 03:28:59;;;;;;;4.73;4.43;;;14.40;99.90;;;14.85;90.89;97777.41;5043122;28;20543;-81
2022/09/11 03:31:27;;;;;;;5.60;5.20;;;14.40;99.90;;;14.86;90.99;97779.06;5044166;28;20559;-82
2022/09/11 03:33:55;;;;;;;5.30;4.90;;;14.40;99.90;;;14.83;90.50;97765.13;5041925;28;20460;-83
2022/09/11 03:36:23;;;;;;;6.53;5.60;;;14.40;99.90;;;14.66;91.15;97759.69;5033993;28;20517;-81
2022/09/11 03:38:51;;;;;;;5.67;5.27;;;14.40;99.90;;;14.82;91.79;97780.63;5037149;28;20464;-75
2022/09/11 03:41:19;;;;;;;6.67;6.17;;;14.40;99.90;;;14.78;91.38;97767.75;5049768;28;20817;-80
2022/09/11 03:43:46;;;;;;;6.40;5.97;;;14.40;99.90;;;14.93;91.24;97767.19;5045277;28;20879;-78
2022/09/11 03:46:13;;;;;;;7.57;6.97;;;14.40;99.90;;;14.91;91.61;97772.84;5043947;28;20501;-79
2022/09/11 03:48:41;;;;;;;7.40;6.90;;;14.40;99.90;;;14.93;91.59;97784.31;5031813;28;20502;-79
2022/09/11 03:51:08;;;;;;;7.20;6.70;;;14.40;99.90;;;14.60;92.12;97769.66;5039119;28;21104;-80
2022/09/11 03:53:37;;;;;;;9.77;8.97;;;14.30;99.90;;;14.54;94.17;97784.25;5040599;28;20471;-80
2022/09/11 03:56:05;;;;;;;14.20;9.10;;;14.20;99.90;;;14.58;94.52;97790.81;5044736;28;20509;-80
2022/09/11 03:58:33;;;;;;;10.50;9.60;;;14.20;99.90;;;14.56;94.98;97787.53;5048108;28;20897;-79
2022/09/11 04:01:00;;;;;;;11.20;10.20;;;14.20;99.90;;;14.34;95.32;97780.13;5038110;28;20471;-81
2022/09/11 04:03:29;;;;;;;11.97;10.97;;;14.10;99.90;;;14.41;95.98;97786.19;5035356;28;20522;-77
2022/09/11 04:05:58;;;;;;;11.20;10.20;;;14.10;99.90;;;14.56;95.97;97795.69;5037513;28;20452;-82
2022/09/11 04:08:25;;;;;;;12.60;11.40;;;14.10;99.90;;;14.31;96.40;97776.00;5038885;28;20512;-76
2022/09/11 04:11:02;;;;;;;12.50;11.37;;;14.10;99.90;;;14.59;96.06;97806.06;5042924;28;20451;-79
2022/09/11 04:13:32;;;;;;;13.00;11.80;;;14.10;99.90;;;14.66;94.99;97801.28;5045034;28;20499;-78
2022/09/11 04:16:01;;;;;;;13.43;12.23;;;14.10;99.90;;;14.50;95.93;97796.69;5048809;28;20538;-79
2022/09/11 04:18:30;;;;;;;17.43;13.57;;;14.10;99.90;;;14.45;96.19;97805.56;5034467;28;20519;-78
2022/09/11 04:20:57;;;;;;;14.97;13.57;;;14.10;99.90;;;14.50;96.81;97800.22;5046157;28;20461;-80
2022/09/11 04:23:24;;;;;;;16.07;14.47;;;14.10;99.90;;;14.45;96.41;97803.66;5034684;28;20554;-77
2022/09/11 04:25:52;;;;;;;16.60;15.10;;;14.10;99.90;;;14.42;96.24;97806.88;5038890;28;21143;-78
2022/09/11 04:28:21;;;;;;;14.10;12.80;;;14.10;99.90;;;14.44;96.62;97810.16;5046949;28;20469;-80
2022/09/11 04:30:48;;;;;;;17.27;15.57;;;14.10;99.90;;;14.45;96.53;97814.53;5056300;28;20473;-75
2022/09/11 04:33:15;;;;;;;16.40;14.90;;;14.10;99.90;;;14.35;97.26;97808.09;5041343;28;20982;-78
2022/09/11 04:35:42;;;;;;;16.33;14.83;;;14.10;99.90;;;14.57;96.19;97821.78;5045085;28;20497;-81
2022/09/11 04:38:09;;;;;;;15.90;14.33;;;14.10;99.90;;;14.47;96.54;97808.03;5042273;28;20451;-80
2022/09/11 04:40:37;;;;;;;15.90;14.40;;;14.10;99.90;;;14.36;96.29;97793.44;5043145;28;20491;-79
2022/09/11 04:43:06;;;;;;;15.93;14.37;;;14.10;99.90;;;14.50;96.53;97807.56;5036537;28;20513;-82
2022/09/11 04:45:35;;;;;;;15.93;14.40;;;14.10;99.90;;;14.57;95.39;97822.63;5037435;28;20500;-80
2022/09/11 04:48:03;;;;;;;17.00;15.40;;;14.10;99.90;;;14.50;96.31;97815.72;5048075;28;20479;-80
2022/09/11 04:50:30;;;;;;;18.00;16.30;;;14.10;99.90;;;14.56;95.98;97831.03;5041072;28;20467;-82
2022/09/11 04:52:58;;;;;;;16.00;14.47;;;14.10;99.90;;;14.56;95.88;97825.59;5043408;28;20551;-78
2022/09/11 04:55:26;;;;;;;17.07;15.40;;;14.10;99.90;;;14.54;96.15;97831.25;5035287;28;20468;-81
2022/09/11 04:57:53;;;;;;;17.43;15.73;;;14.10;99.90;;;14.58;96.20;97834.31;5046995;28;20510;-76
2022/09/11 05:00:21;;;;;;;19.30;17.33;;;14.10;99.90;;;14.77;94.95;97828.66;5052957;28;20465;-82
2022/09/11 05:02:50;;;;;;;17.80;16.07;;;14.20;99.90;;;14.73;95.00;97841.94;5043821;28;20481;-81
2022/09/11 05:05:17;;;;;;;17.47;15.67;;;14.20;99.90;;;14.78;95.11;97849.34;5042124;28;20461;-80
2022/09/11 05:07:44;;;;;;;17.53;15.90;;;14.20;99.90;;;14.55;95.33;97837.53;5037049;28;20508;-80
2022/09/11 05:10:12;;;;;;;17.90;16.30;;;14.20;99.90;;;14.64;95.32;97857.81;5050179;28;20466;-79
2022/09/11 05:12:39;;;;;;;18.63;16.73;;;14.20;99.90;;;14.75;95.06;97849.84;5054170;28;20453;-79
2022/09/11 05:15:09;;;;;;;17.93;16.13;;;14.20;99.90;;;14.72;95.44;97852.00;5060692;28;20823;-77
2022/09/11 05:17:36;;;;;;;17.03;15.53;;;14.30;99.90;;;14.83;94.87;97857.59;5051910;28;20567;-82
2022/09/11 05:20:05;;;;;;;18.40;16.63;;;14.30;99.90;;;14.78;94.90;97857.50;5052237;28;21203;-81
2022/09/11 05:22:33;;;;;;;17.47;15.80;;;14.30;99.90;;;14.88;94.65;97849.53;5047776;28;20495;-78
2022/09/11 05:25:00;;;;;;;18.30;16.60;;;14.30;99.90;;;14.70;95.04;97855.97;5052022;28;20465;-77
2022/09/11 05:27:27;;;;;;;20.20;18.10;;;14.30;99.90;;;14.59;95.41;97842.25;5053881;28;20445;-78
2022/09/11 05:29:55;;;;;;;18.00;16.30;;;14.30;99.90;;;14.89;94.42;97867.47;5051341;28;20459;-77
2022/09/11 05:32:23;;;;;;;18.60;16.70;;;14.40;99.90;;;14.86;94.04;97871.53;5042664;28;20472;-78
2022/09/11 05:34:50;;;;;;;17.73;16.10;;;14.40;99.90;;;14.90;94.69;97869.13;5051195;28;20447;-77
2022/09/11 05:37:19;;;;;;;17.77;16.10;;;14.40;99.90;;;14.62;93.79;97819.16;5069305;28;21203;-80
2022/09/11 05:39:46;;;;;;;15.97;14.47;;;14.50;99.90;;;14.70;94.05;97856.81;5049893;28;20516;-81
2022/09/11 05:42:14;;;;;;;16.50;15.00;;;14.40;99.90;;;14.98;94.14;97885.06;5049497;28;20480;-79
2022/09/11 05:44:41;;;;;;;16.90;15.30;;;14.50;99.90;;;14.96;93.65;97875.47;5043805;28;20555;-80
2022/09/11 05:47:08;;;;;;;16.63;15.00;;;14.50;99.90;;;14.91;93.92;97889.81;5039588;28;20555;-76
2022/09/11 05:49:35;;;;;;;17.30;15.60;;;14.50;99.90;;;15.09;93.54;97893.34;5041724;28;20490;-78
2022/09/11 05:52:03;;;;;;;15.77;14.37;;;14.50;99.90;;;15.08;93.04;97891.72;5043858;28;20509;-76
2022/09/11 05:54:32;;;;;;;15.23;13.90;;;14.60;99.90;;;15.02;92.90;97891.63;5042965;28;20549;-78
2022/09/11 05:57:01;;;;;;;16.23;14.63;;;14.60;99.90;;;15.09;92.85;97909.69;5050916;28;20465;-77
2022/09/11 05:59:28;;;;;;;14.10;12.90;;;14.60;99.90;;;14.96;92.83;97902.69;5041428;28;20545;-77
2022/09/11 06:01:55;;;;;;;15.40;13.90;;;14.60;99.90;;;15.01;93.10;97892.72;5040211;28;20544;-76
2022/09/11 06:04:22;;;;;;;15.97;14.37;;;14.60;99.90;;;15.12;92.87;97903.78;5038741;28;20458;-77
2022/09/11 06:06:50;;;;;;;16.07;14.57;;;14.60;99.90;;;15.32;91.50;97924.19;5057515;28;20822;-77
2022/09/11 06:09:17;;;;;;;14.70;13.40;;;14.70;99.90;;;15.14;92.23;97923.38;5040093;28;20894;-77
2022/09/11 06:11:46;;;;;;;14.00;12.80;;;14.70;99.90;;;15.09;92.34;97921.41;5050564;28;20479;-77
2022/09/11 06:14:13;;;;;;;14.03;12.83;;;14.70;99.90;;;15.22;91.61;97925.69;5047770;28;20507;-80
2022/09/11 06:16:41;;;;;;;13.50;12.20;;;14.70;99.90;;;15.39;90.99;97924.84;5049348;28;20461;-78
2022/09/11 06:19:08;;;;;;;13.10;11.90;;;14.70;99.90;;;15.33;90.92;97928.56;5043825;28;20998;-80
2022/09/11 06:21:35;;;;;;;14.43;13.10;;;14.80;99.90;;;15.68;90.10;97933.72;5037880;28;21789;-75
2022/09/11 06:24:04;;;;;;;13.73;10.33;;;14.90;99.90;;;15.58;88.87;97939.00;5045549;28;20471;-79
2022/09/11 06:26:31;;;;;;;10.63;9.70;;;15.00;99.90;;;15.18;88.90;97888.34;5039609;28;20473;-81
2022/09/11 06:29:00;;;;;;;9.87;9.00;;;15.00;99.90;;;15.44;89.54;97944.00;5039227;28;20477;-79
2022/09/11 06:31:28;;;;;;;9.13;8.43;;;15.00;99.90;;;15.48;89.38;97956.03;5040312;28;20458;-78
2022/09/11 06:33:56;;;;;;;9.90;9.10;;;15.00;99.90;;;15.67;88.71;97944.84;5042815;28;21136;-72
2022/09/11 06:36:26;;;;;;;10.07;9.13;;;15.00;99.90;;;15.60;88.71;97946.94;5044104;28;20866;-84
2022/09/11 06:38:54;;;;;;;8.43;7.67;;;15.10;99.90;;;15.77;87.78;97955.91;5036137;28;20553;-84
2022/09/11 06:41:24;;;;;;;9.67;8.87;;;15.20;99.90;;;15.93;86.71;97951.53;5038537;28;20465;-85
2022/09/11 06:43:52;;;;;;;9.00;8.30;;;15.30;99.90;;;15.99;86.85;97960.56;5034887;28;20553;-82
2022/09/11 06:46:24;;;;;;;8.83;8.10;;;15.40;99.90;;;16.11;86.21;97961.28;5030717;28;20449;-78
2022/09/11 06:48:52;;;;;;;7.90;7.30;;;15.50;99.90;;;16.06;85.47;97965.84;5030154;28;20487;-78
2022/09/11 06:51:21;;;;;;;8.87;8.07;;;15.50;99.90;;;16.16;85.34;97965.16;5029737;28;20524;-78
2022/09/11 06:53:49;;;;;;;7.10;6.60;;;15.60;99.90;;;15.89;85.08;97933.19;5028797;28;20450;-80
2022/09/11 06:56:18;;;;;;;7.83;7.13;;;15.60;99.90;;;16.34;84.20;97967.56;5034859;28;20493;-77
2022/09/11 06:58:46;;;;;;;6.33;5.83;;;15.70;99.90;;;16.47;83.72;97979.16;5032265;28;21138;-77
2022/09/11 07:01:15;;;;;;;7.27;6.70;;;15.70;99.90;;;16.31;83.65;97984.44;5037108;28;21389;-77
2022/09/11 07:03:45;;;;;;;7.20;6.50;;;15.70;99.90;;;16.42;83.00;97983.47;5030357;28;20469;-79
2022/09/11 07:06:12;;;;;;;6.93;6.33;;;15.70;99.90;;;16.48;83.21;97972.63;5032589;28;20454;-80
2022/09/11 07:08:40;;;;;;;6.00;5.53;;;15.70;99.90;;;16.54;83.17;97987.97;5031729;28;21206;-78
2022/09/11 07:11:10;;;;;;;6.17;5.67;;;15.80;99.90;;;16.64;82.74;97996.28;5040825;28;20460;-80
2022/09/11 07:13:38;;;;;;;5.97;5.53;;;15.80;99.90;;;16.36;82.66;97970.03;5026848;28;20461;-77
2022/09/11 07:16:08;;;;;;;6.63;5.93;;;15.80;99.90;;;16.37;82.74;97991.59;5024843;28;20467;-80
2022/09/11 07:18:37;;;;;;;6.37;5.87;;;15.70;99.90;;;16.41;82.89;97995.44;5028889;28;20461;-77
2022/09/11 07:21:07;;;;;;;5.73;5.33;;;15.70;99.90;;;16.56;82.33;97991.25;5036953;28;20446;-81
2022/09/11 07:23:35;;;;;;;5.80;5.20;;;15.80;99.90;;;16.56;81.87;97991.25;5034119;28;20511;-78
2022/09/11 07:26:05;;;;;;;5.47;5.07;;;15.80;99.90;;;16.42;82.61;98008.00;5033706;28;20461;-76
2022/09/11 07:28:33;;;;;;;5.93;5.43;;;15.80;99.60;;;16.50;81.20;97965.00;5030019;28;20508;-78
2022/09/11 07:31:10;;;;;;;6.00;5.50;;;16.00;99.40;;;16.92;81.03;98002.56;5022310;28;20984;-78
2022/09/11 07:33:39;;;;;;;5.73;5.33;;;16.10;99.20;;;16.93;80.01;98006.94;5034552;28;20464;-79
2022/09/11 07:36:12;;;;;;;5.57;5.17;;;16.20;97.60;;;16.91;80.54;98014.56;5040787;28;20491;-75
2022/09/11 07:38:41;;;;;;;6.47;5.97;;;16.30;97.50;;;17.50;78.87;98017.56;5048664;28;22564;-77
2022/09/11 07:41:08;;;;;;;5.70;5.30;;;16.50;97.50;;;17.52;77.81;98023.59;5030904;28;20697;-76
2022/09/11 07:43:35;;;;;;;5.20;4.80;;;16.60;95.70;;;17.26;77.90;98020.63;5035389;28;21027;-76
2022/09/11 07:46:05;;;;;;;4.27;3.87;;;16.60;94.60;;;16.97;78.26;98029.91;5037872;28;20464;-76
2022/09/11 07:48:33;;;;;;;5.07;4.77;;;16.50;94.60;;;16.75;79.58;98032.66;5041618;28;20469;-75
2022/09/11 07:51:03;;;;;;;4.53;4.23;;;16.30;95.20;;;16.99;78.96;98033.22;5049700;28;20559;-76
2022/09/11 07:53:34;;;;;;;4.43;4.13;;;16.30;95.90;;;17.05;78.62;98041.44;5027694;28;20462;-75
2022/09/11 07:56:06;;;;;;;4.10;3.80;;;16.40;95.30;;;16.97;77.82;98043.53;5030778;28;20466;-74
2022/09/11 07:58:34;;;;;;;5.63;4.60;;;16.50;94.10;;;16.99;78.36;98048.78;5031755;28;20493;-75
2022/09/11 08:01:02;;;;;;;4.33;3.93;;;16.40;94.80;;;16.94;77.82;98046.78;5034522;28;20873;-75
2022/09/11 08:03:30;;;;;;;4.70;4.30;;;16.40;94.30;;;17.12;77.41;98061.19;5040939;28;20832;-75
2022/09/11 08:05:58;;;;;;;3.83;3.63;;;16.40;94.00;;;17.17;75.77;98001.19;5037111;28;20502;-76
2022/09/11 08:08:27;;;;;;;4.00;3.70;;;16.70;93.90;;;17.60;75.93;98055.06;5041257;28;20454;-75
2022/09/11 08:10:56;;;;;;;4.50;4.10;;;16.80;93.40;;;17.84;75.40;98059.09;5045116;28;20870;-74
2022/09/11 08:13:25;;;;;;;3.90;3.60;;;17.00;93.20;;;17.72;74.96;98061.19;5039617;28;20532;-76
2022/09/11 08:15:52;;;;;;;3.70;3.40;;;17.10;92.40;;;17.48;75.24;98061.53;5039827;28;20457;-75
2022/09/11 08:18:19;;;;;;;4.37;4.07;;;16.90;92.20;;;17.88;74.43;98064.03;5064265;28;20559;-74
2022/09/11 08:20:47;;;;;;;4.03;3.73;;;17.00;92.60;;;17.61;74.60;98053.97;5053093;28;20464;-75
2022/09/11 08:23:15;;;;;;;3.87;2.93;;;17.00;92.00;;;17.51;74.52;98066.47;5027738;28;20463;-75
2022/09/11 08:25:43;;;;;;;6.37;3.57;;;17.00;91.80;;;17.82;73.57;98068.63;5040110;28;20507;-75
2022/09/11 08:28:12;;;;;;;3.50;3.20;;;17.20;91.50;;;17.83;73.10;98062.06;5065231;28;20512;-76
2022/09/11 08:30:40;;;;;;;3.80;3.50;;;17.30;91.40;;;17.75;74.34;98087.16;5036429;28;20563;-76
2022/09/11 08:33:08;;;;;;;4.07;3.77;;;17.10;91.50;;;17.55;73.99;98073.06;5037476;28;20461;-76
2022/09/11 08:35:36;;;;;;;4.53;4.13;;;17.00;91.40;;;17.42;74.52;98073.50;5036810;28;20545;-75
2022/09/11 08:38:03;;;;;;;4.30;3.90;;;16.90;91.80;;;17.68;74.04;98066.34;5043029;28;20463;-74
2022/09/11 08:40:31;;;;;;;3.97;3.67;;;17.00;92.00;;;17.83;73.61;98084.78;5052956;28;20484;-75
2022/09/11 08:43:02;;;;;;;4.07;3.73;;;17.20;91.80;;;17.69;72.85;98051.59;5054191;28;21200;-73
2022/09/11 08:45:34;;;;;;;3.63;3.33;;;17.30;91.00;;;18.51;71.97;98104.38;5047000;28;20464;-74
2022/09/11 08:48:05;;;;;;;3.50;3.20;;;17.60;91.00;;;18.46;71.12;98098.88;5036590;28;20467;-79
2022/09/11 08:50:39;;;;;;;3.87;3.57;;;17.80;90.40;;;18.52;71.19;98101.38;5041837;28;21000;-78
2022/09/11 08:53:14;;;;;;;4.00;3.70;;;17.90;90.00;;;18.68;69.86;98106.94;5060777;28;20841;-76
2022/09/11 08:55:48;;;;;;;3.63;3.43;;;18.00;89.40;;;18.20;71.01;98112.38;5051162;28;20620;-76
2022/09/11 08:58:28;;;;;;;3.10;2.90;;;17.70;89.20;;;18.81;68.82;98113.81;5040007;28;20485;-76
2022/09/11 09:01:13;;;;;;;2.90;2.70;;;17.90;89.00;;;18.89;68.40;98110.56;5038466;28;20582;-76
2022/09/11 09:03:58;;;;;;;3.10;2.90;;;18.10;88.40;;;18.80;68.33;98109.44;5053652;28;20523;-76
2022/09/11 09:06:57;;;;;;;4.10;3.57;;;18.20;87.80;;;19.23;67.77;98112.06;5035178;28;20605;-76
2022/09/11 09:09:35;;;;;;;2.87;2.67;;;18.40;87.60;;;19.34;65.17;98115.69;5033296;28;20554;-78
2022/09/11 09:12:16;;;;;;;2.40;2.30;;;18.80;85.80;;;18.83;66.80;98117.09;5045668;28;20445;-79
2022/09/11 09:15:24;;;;;;;2.93;2.73;;;18.40;85.80;;;18.80;67.56;98117.66;5041257;28;20565;-76
2022/09/11 09:17:59;;;;;;;3.07;2.87;;;18.30;86.20;;;18.62;67.81;98132.59;5051891;28;20453;-78
2022/09/11 09:20:32;;;;;;;3.80;2.73;;;18.10;86.50;;;18.36;69.77;98130.53;5050141;28;20955;-76
2022/09/11 09:23:04;;;;;;;2.83;2.63;;;17.90;87.30;;;18.40;69.81;98120.72;5046286;28;20497;-77
2022/09/11 09:25:37;;;;;;;3.30;3.00;;;17.80;88.20;;;18.75;69.36;98126.66;5051138;28;20540;-77
2022/09/11 09:28:11;;;;;;;3.60;3.30;;;18.00;88.50;;;19.11;69.16;98129.56;5039569;28;20968;-77
2022/09/11 09:30:49;;;;;;;4.57;3.93;;;18.20;88.60;;;19.02;67.75;98124.88;5046173;28;20502;-76
2022/09/11 09:33:29;;;;;;;3.47;3.17;;;18.40;87.00;;;19.04;67.23;98114.50;5050546;28;20485;-76
2022/09/11 09:36:00;;;;;;;3.13;2.93;;;18.50;86.70;;;19.14;66.01;98121.91;5043540;28;20454;-78
2022/09/11 09:38:30;;;;;;;2.87;2.67;;;18.80;85.50;;;19.27;66.51;98126.03;5048490;28;20513;-78
2022/09/11 09:41:40;;;;;;;3.97;3.67;;;18.70;85.70;;;19.43;65.48;98118.69;5040939;28;20540;-76
2022/09/11 09:44:21;;;;;;;4.70;3.83;;;18.70;85.90;;;19.54;65.68;98123.06;5071982;28;20564;-80
2022/09/11 09:46:52;;;;;;;4.23;3.93;;;18.80;85.60;;;19.48;65.28;98122.25;5047460;28;20456;-78
2022/09/11 09:49:24;;;;;;;4.77;4.37;;;18.80;85.40;;;19.12;66.25;98133.13;5030428;28;20539;-78
2022/09/11 09:51:54;;;;;;;3.93;3.63;;;18.70;85.40;;;18.67;66.77;98129.91;5050767;28;20542;-78
2022/09/11 09:54:27;;;;;;;4.20;3.80;;;18.30;85.40;;;18.57;68.86;98144.34;5056797;28;20527;-77
2022/09/11 09:57:00;;;;;;;4.00;3.70;;;18.00;86.80;;;18.54;68.07;98136.66;5054468;28;20487;-77
2022/09/11 09:59:34;;;;;;;4.43;4.03;;;18.00;86.40;;;18.59;67.69;98138.59;5028573;28;20518;-79
2022/09/11 10:02:02;;;;;;;5.50;5.07;;;18.00;86.00;;;18.98;67.22;98141.81;5041140;28;20457;-79
2022/09/11 10:04:33;;;;;;;4.43;4.03;;;18.30;86.40;;;19.15;64.81;98134.50;5033759;28;20982;-76
2022/09/11 10:07:09;;;;;;;5.73;5.20;;;18.50;84.80;;;19.07;66.19;98133.94;5062492;28;20447;-78
2022/09/11 10:09:45;;;;;;;4.70;4.30;;;18.40;85.30;;;18.86;66.81;98132.97;5039984;28;21315;-79
2022/09/11 10:12:18;;;;;;;4.53;4.13;;;18.50;85.50;;;19.28;65.39;98135.91;5028147;28;22383;-82
2022/09/11 10:14:53;;;;;;;5.37;4.43;;;18.60;85.10;;;18.98;66.68;98135.53;5030455;28;20457;-74
2022/09/11 10:17:23;;;;;;;4.83;4.50;;;18.40;85.40;;;19.23;66.45;98132.06;5062597;28;20467;-74
2022/09/11 10:19:55;;;;;;;5.17;4.77;;;18.50;85.80;;;19.18;65.81;98129.28;5041583;28;20465;-74
2022/09/11 10:22:32;;;;;;;5.07;4.67;;;18.60;85.40;;;19.35;64.71;98137.28;5036857;28;20463;-74
2022/09/11 10:25:09;;;;;;;4.43;4.07;;;18.60;84.60;;;19.27;65.14;98131.53;5049283;28;20485;-75
2022/09/11 10:27:44;;;;;;;7.77;5.10;;;18.70;84.70;;;20.21;62.44;98131.34;5050606;28;20453;-84
2022/09/11 10:30:27;;;;;;;5.57;5.07;;;19.30;84.10;;;20.82;59.55;98125.22;5039001;28;20478;-79
2022/09/11 10:32:55;;;;;;;5.63;5.23;;;20.00;82.50;;;20.65;60.01;98126.34;5041144;28;20474;-84